Time;durP1;ratioP1;P1;durP2;ratioP2;P2;SDS_P1;SDS_P2;PMS_P1;PMS_P2;Temp;Humidity;BMP_temperature;BMP_pressure;BME280_temperature;BME280_humidity;BME280_pressure;Samples;Min_cycle;Max_cycle;Signal;HPM_P1;HPM_P2
2021/12/04 00:01:51;;;;;;;11.30;6.15;;;5.10;95.40;;;;;;4935200;29;20091;-65
2021/12/04 00:04:31;;;;;;;9.38;6.30;;;5.10;95.40;;;;;;4923759;29;20024;-65
2021/12/04 00:06:56;;;;;;;11.60;6.40;;;5.10;95.40;;;;;;4935200;29;20028;-64
2021/12/04 00:09:22;;;;;;;11.20;6.40;;;5.10;95.40;;;;;;4933816;29;20529;-64
2021/12/04 00:12:01;;;;;;;9.35;6.38;;;5.10;95.50;;;;;;4934372;29;20050;-64
2021/12/04 00:14:26;;;;;;;9.70;6.32;;;5.10;95.50;;;;;;4935019;29;20106;-64
2021/12/04 00:16:53;;;;;;;11.15;6.25;;;5.10;95.60;;;;;;4933877;29;20035;-64
2021/12/04 00:19:19;;;;;;;10.38;6.15;;;5.10;95.60;;;;;;4934223;29;20154;-64
2021/12/04 00:21:45;;;;;;;10.10;5.82;;;5.10;95.60;;;;;;4934267;29;20435;-64
2021/12/04 00:24:10;;;;;;;9.02;6.35;;;5.10;95.60;;;;;;4934077;29;20040;-64
2021/12/04 00:26:36;;;;;;;8.63;5.93;;;5.10;95.70;;;;;;4933511;29;20027;-65
2021/12/04 00:29:02;;;;;;;10.40;6.68;;;5.10;95.70;;;;;;4930027;29;20036;-65
2021/12/04 00:31:28;;;;;;;11.27;7.05;;;5.00;95.70;;;;;;4926748;29;20483;-64
2021/12/04 00:33:54;;;;;;;10.82;6.22;;;5.10;95.80;;;;;;4925940;29;20030;-64
2021/12/04 00:37:17;;;;;;;11.02;6.43;;;5.10;95.80;;;;;;4927082;29;20042;-65
2021/12/04 00:50:03;;;;;;;11.20;6.50;;;5.10;95.90;;;;;;4925324;29;20131;-65
2021/12/04 00:52:29;;;;;;;10.80;6.30;;;5.10;95.90;;;;;;4932327;29;20059;-65
2021/12/04 00:54:55;;;;;;;10.50;6.65;;;5.10;95.90;;;;;;4939319;29;20027;-64
2021/12/04 00:57:20;;;;;;;12.60;6.93;;;5.10;95.90;;;;;;4940510;29;20050;-64
2021/12/04 00:59:46;;;;;;;11.73;6.13;;;5.10;96.10;;;;;;4932762;29;20028;-65
2021/12/04 01:02:11;;;;;;;10.80;6.70;;;5.10;95.90;;;;;;4933378;29;20501;-65
2021/12/04 01:04:37;;;;;;;11.70;7.32;;;5.10;96.00;;;;;;4933363;29;20028;-65
2021/12/04 01:07:03;;;;;;;11.07;8.02;;;5.10;96.00;;;;;;4932662;29;20110;-64
2021/12/04 01:09:28;;;;;;;11.80;6.40;;;5.10;96.00;;;;;;4933335;29;20024;-64
2021/12/04 01:11:55;;;;;;;11.00;6.55;;;5.20;96.00;;;;;;4932275;29;20224;-65
2021/12/04 01:14:24;;;;;;;9.15;6.18;;;5.20;96.00;;;;;;4933894;29;20035;-64
2021/12/04 01:16:50;;;;;;;13.35;7.15;;;5.20;96.10;;;;;;4937647;29;20090;-65
2021/12/04 01:19:18;;;;;;;10.98;6.45;;;5.20;96.10;;;;;;4937424;29;20035;-65
2021/12/04 01:21:45;;;;;;;12.95;6.72;;;5.20;96.10;;;;;;4936592;29;20059;-65
2021/12/04 01:24:13;;;;;;;10.63;6.90;;;5.20;96.10;;;;;;4937257;29;20435;-65
2021/12/04 01:26:39;;;;;;;15.82;7.38;;;5.20;96.10;;;;;;4935869;29;20039;-65
2021/12/04 01:29:04;;;;;;;11.93;7.32;;;5.30;96.10;;;;;;4936424;29;20039;-65
2021/12/04 01:31:30;;;;;;;11.30;6.50;;;5.30;96.10;;;;;;4937187;29;20035;-64
2021/12/04 01:33:55;;;;;;;11.32;7.10;;;5.30;96.10;;;;;;4936357;29;20094;-65
2021/12/04 01:36:21;;;;;;;10.40;7.03;;;5.30;96.20;;;;;;4936989;29;20027;-65
2021/12/04 01:38:47;;;;;;;11.00;7.53;;;5.20;96.10;;;;;;4937222;29;20024;-64
2021/12/04 01:41:13;;;;;;;12.43;7.50;;;5.20;96.20;;;;;;4936034;29;20035;-64
2021/12/04 01:43:38;;;;;;;9.98;6.47;;;5.20;96.30;;;;;;4936705;29;20062;-65
2021/12/04 01:46:04;;;;;;;10.65;6.88;;;5.30;96.30;;;;;;4935487;29;20105;-65
2021/12/04 01:48:30;;;;;;;10.88;7.32;;;5.20;96.30;;;;;;4942170;29;20527;-65
2021/12/04 01:50:56;;;;;;;12.05;7.22;;;5.30;96.30;;;;;;4936729;29;20024;-66
2021/12/04 01:53:22;;;;;;;9.23;7.07;;;5.30;96.30;;;;;;4935776;29;20392;-64
2021/12/04 01:55:51;;;;;;;10.95;7.07;;;5.30;96.40;;;;;;4945290;29;20024;-65
2021/12/04 01:58:18;;;;;;;8.75;6.22;;;5.30;96.40;;;;;;4937004;29;20031;-64
2021/12/04 02:00:43;;;;;;;10.35;7.38;;;5.30;96.40;;;;;;4936772;29;20128;-64
2021/12/04 02:03:12;;;;;;;8.65;6.47;;;5.30;96.30;;;;;;4936222;29;20050;-65
2021/12/04 02:05:38;;;;;;;11.27;7.32;;;5.30;96.30;;;;;;4936998;29;20110;-64
2021/12/04 02:08:13;;;;;;;11.30;7.45;;;5.40;96.30;;;;;;4936082;29;20032;-65
2021/12/04 02:10:39;;;;;;;12.88;7.38;;;5.40;96.40;;;;;;4935985;29;20044;-65
2021/12/04 02:13:05;;;;;;;11.38;6.97;;;5.40;96.30;;;;;;4934633;29;20042;-65
2021/12/04 02:15:30;;;;;;;10.75;7.55;;;5.30;96.30;;;;;;4936642;29;20028;-65
2021/12/04 02:17:56;;;;;;;11.40;7.70;;;5.40;96.40;;;;;;4935870;29;20051;-65
2021/12/04 02:20:25;;;;;;;10.70;6.82;;;5.40;96.40;;;;;;4935681;29;20471;-64
2021/12/04 02:22:51;;;;;;;11.25;7.60;;;5.40;96.40;;;;;;4936161;29;20023;-65
2021/12/04 02:25:17;;;;;;;12.55;7.35;;;5.40;96.40;;;;;;4935353;29;20449;-65
2021/12/04 02:27:44;;;;;;;10.60;7.10;;;5.30;96.40;;;;;;4934763;29;20036;-65
2021/12/04 02:30:19;;;;;;;12.60;7.20;;;5.30;96.50;;;;;;4936175;29;20067;-65
2021/12/04 02:32:46;;;;;;;10.20;6.35;;;5.30;96.50;;;;;;4934862;29;20043;-65
2021/12/04 02:35:12;;;;;;;10.50;7.03;;;5.30;96.50;;;;;;4936250;29;20042;-65
2021/12/04 02:37:39;;;;;;;11.90;7.25;;;5.40;96.50;;;;;;4949735;29;20057;-64
2021/12/04 02:40:08;;;;;;;9.23;6.53;;;5.40;96.50;;;;;;4935585;29;20379;-64
2021/12/04 02:42:35;;;;;;;11.02;7.25;;;5.40;96.50;;;;;;4935872;29;20047;-64
2021/12/04 02:45:03;;;;;;;10.57;7.43;;;5.30;96.50;;;;;;4935580;29;20050;-64
2021/12/04 02:47:29;;;;;;;9.57;7.38;;;5.30;96.60;;;;;;4935288;29;20063;-65
2021/12/04 02:49:56;;;;;;;11.25;6.82;;;5.40;96.60;;;;;;4936043;29;20476;-65
2021/12/04 02:52:23;;;;;;;13.93;7.20;;;5.30;96.50;;;;;;4935123;29;20055;-65
2021/12/04 02:54:49;;;;;;;11.88;7.72;;;5.30;96.60;;;;;;4936055;29;20036;-65
2021/12/04 02:57:17;;;;;;;11.60;6.57;;;5.30;96.60;;;;;;4934924;29;20461;-65
2021/12/04 02:59:43;;;;;;;11.27;8.10;;;5.30;96.70;;;;;;4935897;29;20055;-65
2021/12/04 03:02:21;;;;;;;10.15;6.90;;;5.30;96.70;;;;;;4934988;29;20419;-65
2021/12/04 03:04:57;;;;;;;13.45;8.10;;;5.30;96.70;;;;;;4935657;29;20028;-64
2021/12/04 03:07:23;;;;;;;11.60;8.10;;;5.30;96.70;;;;;;4935011;29;20119;-65
2021/12/04 03:09:49;;;;;;;10.07;7.40;;;5.40;96.70;;;;;;4934709;29;20042;-65
2021/12/04 03:12:18;;;;;;;12.82;8.32;;;5.40;96.70;;;;;;4934632;29;20047;-64
2021/12/04 03:14:44;;;;;;;13.45;7.68;;;5.40;96.70;;;;;;4935074;29;20188;-65
2021/12/04 03:17:09;;;;;;;10.00;7.13;;;5.30;96.70;;;;;;4934604;29;20040;-65
2021/12/04 03:19:36;;;;;;;10.80;7.40;;;5.40;96.70;;;;;;4935699;29;20063;-65
2021/12/04 03:22:02;;;;;;;10.18;7.00;;;5.40;96.70;;;;;;4934949;29;20023;-65
2021/12/04 03:24:29;;;;;;;14.95;7.65;;;5.30;96.70;;;;;;4935524;29;20039;-64
2021/12/04 03:26:55;;;;;;;11.75;8.45;;;5.30;96.80;;;;;;4934599;29;20035;-64
2021/12/04 03:29:24;;;;;;;11.40;7.95;;;5.30;96.80;;;;;;4934696;29;20527;-64
2021/12/04 03:40:34;;;;;;;11.30;7.85;;;5.30;96.80;;;;;;4928594;28;20043;-64
2021/12/04 03:42:57;;;;;;;11.55;7.93;;;5.30;96.80;;;;;;4934070;29;20035;-64
2021/12/04 03:45:22;;;;;;;11.70;7.28;;;5.30;96.90;;;;;;4934468;29;20555;-65
2021/12/04 03:47:51;;;;;;;12.48;7.78;;;5.30;96.90;;;;;;4932876;29;20514;-64
2021/12/04 03:50:17;;;;;;;10.88;7.57;;;5.30;96.90;;;;;;4934887;29;20063;-64
2021/12/04 03:52:42;;;;;;;13.15;8.25;;;5.30;96.90;;;;;;4933969;29;20032;-64
2021/12/04 03:55:09;;;;;;;14.95;8.07;;;5.30;97.20;;;;;;4934737;29;20415;-64
2021/12/04 03:57:35;;;;;;;12.80;8.48;;;5.30;97.00;;;;;;4935491;29;20063;-65
2021/12/04 04:00:03;;;;;;;13.98;7.90;;;5.30;96.90;;;;;;4934379;29;20024;-65
2021/12/04 04:02:28;;;;;;;11.93;7.72;;;5.30;97.00;;;;;;4934514;29;20031;-64
2021/12/04 04:04:55;;;;;;;12.15;8.35;;;5.30;97.00;;;;;;4934282;29;20042;-64
2021/12/04 04:07:21;;;;;;;13.40;8.80;;;5.30;97.00;;;;;;4933853;29;20047;-65
2021/12/04 04:09:46;;;;;;;12.35;7.78;;;5.30;97.00;;;;;;4934325;29;20040;-65
2021/12/04 04:12:12;;;;;;;12.32;7.72;;;5.30;97.00;;;;;;4934136;29;20043;-65
2021/12/04 04:14:37;;;;;;;13.85;8.68;;;5.30;97.00;;;;;;4934263;29;20024;-65
2021/12/04 04:17:04;;;;;;;12.10;8.80;;;5.30;97.00;;;;;;4933375;29;20496;-64
2021/12/04 04:19:30;;;;;;;12.20;8.23;;;5.30;97.10;;;;;;4934751;29;20110;-65
2021/12/04 04:21:57;;;;;;;14.20;8.23;;;5.30;97.10;;;;;;4933693;29;20035;-64
2021/12/04 04:24:25;;;;;;;12.95;8.82;;;5.30;97.10;;;;;;4934720;29;20027;-65
2021/12/04 04:26:52;;;;;;;13.85;8.32;;;5.30;97.10;;;;;;4933603;29;20032;-64
2021/12/04 04:29:18;;;;;;;13.27;8.40;;;5.30;97.10;;;;;;4934470;29;20024;-65
2021/12/04 04:31:48;;;;;;;15.63;9.13;;;5.30;97.10;;;;;;4933285;29;20042;-65
2021/12/04 04:34:26;;;;;;;13.07;8.68;;;5.30;97.10;;;;;;4934390;29;20135;-65
2021/12/04 05:14:24;;;;;;;11.18;7.80;;;5.30;97.40;;;;;;4928082;29;20052;-65
2021/12/04 05:16:53;;;;;;;13.27;8.65;;;5.30;97.40;;;;;;4926031;29;20059;-65
2021/12/04 05:22:20;;;;;;;10.45;7.78;;;5.30;97.40;;;;;;4899090;29;20601;-65
2021/12/04 05:24:46;;;;;;;12.10;8.00;;;5.30;97.40;;;;;;4917119;29;20344;-64
2021/12/04 05:27:12;;;;;;;13.30;8.27;;;5.30;97.40;;;;;;4925823;29;20016;-65
2021/12/04 05:29:38;;;;;;;11.50;8.27;;;5.20;97.40;;;;;;4922492;29;20087;-66
2021/12/04 05:32:05;;;;;;;12.93;8.57;;;5.20;97.50;;;;;;4926328;29;20094;-65
2021/12/04 05:34:32;;;;;;;10.88;8.10;;;5.20;97.50;;;;;;4938898;28;20103;-66
2021/12/04 05:36:58;;;;;;;12.60;8.68;;;5.20;97.50;;;;;;4926386;29;20063;-66
2021/12/04 05:39:23;;;;;;;11.77;9.05;;;5.20;97.50;;;;;;4933265;29;20070;-65
2021/12/04 05:41:49;;;;;;;13.27;8.95;;;5.20;97.60;;;;;;4933175;29;20031;-65
2021/12/04 05:44:16;;;;;;;15.15;9.30;;;5.20;97.60;;;;;;4932028;29;20023;-66
2021/12/04 05:46:46;;;;;;;16.45;9.43;;;5.20;97.60;;;;;;4932249;29;20024;-66
2021/12/04 05:49:23;;;;;;;14.85;10.18;;;5.20;97.70;;;;;;4927884;29;20122;-65
2021/12/04 05:57:03;;;;;;;10.70;7.88;;;5.10;97.70;;;;;;4932488;29;20036;-64
2021/12/04 05:59:29;;;;;;;11.55;8.18;;;5.10;97.60;;;;;;4933169;29;20034;-66
2021/12/04 06:01:55;;;;;;;10.93;8.15;;;5.10;97.60;;;;;;4934855;29;20039;-65
2021/12/04 06:04:20;;;;;;;11.48;7.45;;;5.10;97.70;;;;;;4922155;29;20062;-65
2021/12/04 06:06:47;;;;;;;9.95;7.10;;;5.10;97.70;;;;;;4930027;29;20479;-65
2021/12/04 06:09:12;;;;;;;10.98;7.70;;;5.10;97.70;;;;;;4936162;29;20024;-65
2021/12/04 06:11:38;;;;;;;10.98;7.03;;;5.10;97.70;;;;;;4935706;29;20047;-65
2021/12/04 06:14:05;;;;;;;11.30;7.38;;;5.10;97.80;;;;;;4937155;29;20023;-64
2021/12/04 06:16:31;;;;;;;10.98;7.57;;;5.10;97.80;;;;;;4934934;29;20123;-64
2021/12/04 06:18:58;;;;;;;11.68;7.85;;;5.10;97.80;;;;;;4926329;29;20032;-64
2021/12/04 06:24:09;;;;;;;11.35;7.20;;;5.00;97.80;;;;;;4930106;29;20035;-65
2021/12/04 06:26:36;;;;;;;10.48;7.18;;;5.00;97.80;;;;;;4933048;29;20090;-65
2021/12/04 06:29:03;;;;;;;11.98;8.25;;;5.00;97.80;;;;;;4928521;29;20039;-64
2021/12/04 06:31:31;;;;;;;10.93;6.68;;;5.00;97.80;;;;;;4936265;29;20046;-65
2021/12/04 06:33:56;;;;;;;13.25;7.63;;;5.00;97.80;;;;;;4927538;29;20034;-65
2021/12/04 06:36:22;;;;;;;11.90;7.53;;;5.00;97.80;;;;;;4934630;29;20031;-65
2021/12/04 06:38:48;;;;;;;11.27;7.22;;;5.10;97.90;;;;;;4918295;29;20028;-65
2021/12/04 06:41:13;;;;;;;10.45;7.45;;;5.10;97.80;;;;;;4924960;29;20027;-65
2021/12/04 06:43:45;;;;;;;13.18;7.72;;;5.10;97.80;;;;;;4934415;29;20463;-63
2021/12/04 06:46:11;;;;;;;11.07;7.53;;;5.00;97.80;;;;;;4935956;29;20035;-65
2021/12/04 06:48:40;;;;;;;11.35;7.30;;;5.00;97.80;;;;;;4936045;29;20050;-64
2021/12/04 06:53:49;;;;;;;9.90;6.90;;;5.00;97.90;;;;;;4938036;28;20045;-63
2021/12/04 06:56:16;;;;;;;11.27;6.88;;;5.00;97.90;;;;;;4933862;29;20035;-64
2021/12/04 06:58:42;;;;;;;10.23;7.28;;;5.10;97.90;;;;;;4936676;29;20110;-64
2021/12/04 07:01:10;;;;;;;11.15;7.22;;;5.00;97.90;;;;;;4938528;29;20107;-64
2021/12/04 07:03:36;;;;;;;11.88;7.85;;;5.00;97.90;;;;;;4936417;29;20435;-64
2021/12/04 07:06:02;;;;;;;11.77;7.47;;;5.00;97.90;;;;;;4935096;29;20030;-64
2021/12/04 07:08:27;;;;;;;10.02;6.72;;;5.00;97.90;;;;;;4933179;29;20467;-65
2021/12/04 07:10:53;;;;;;;10.85;6.75;;;5.10;98.00;;;;;;4929756;29;20497;-66
2021/12/04 07:13:18;;;;;;;11.27;8.10;;;5.10;98.00;;;;;;4932982;28;20510;-65
2021/12/04 07:15:46;;;;;;;14.88;8.07;;;5.10;97.90;;;;;;4931698;29;20060;-65
2021/12/04 07:18:12;;;;;;;10.70;7.05;;;5.10;97.90;;;;;;4930475;29;20027;-65
2021/12/04 07:20:38;;;;;;;12.38;7.15;;;5.10;97.90;;;;;;4932387;29;20067;-65
2021/12/04 07:23:04;;;;;;;11.73;7.97;;;5.10;97.90;;;;;;4929427;29;20052;-65
2021/12/04 07:25:30;;;;;;;9.77;7.25;;;5.20;97.90;;;;;;4929512;29;20538;-64
2021/12/04 07:27:56;;;;;;;9.98;6.88;;;5.20;98.00;;;;;;4932430;29;20034;-65
2021/12/04 07:30:23;;;;;;;10.40;6.70;;;5.20;97.90;;;;;;4929673;29;20035;-64
2021/12/04 07:32:49;;;;;;;10.52;7.13;;;5.20;97.90;;;;;;4933064;29;20119;-63
2021/12/04 07:35:15;;;;;;;10.65;7.15;;;5.20;97.90;;;;;;4935098;29;20032;-64
2021/12/04 07:37:41;;;;;;;14.52;7.63;;;5.30;97.90;;;;;;4934839;29;20082;-63
2021/12/04 07:40:08;;;;;;;10.93;7.40;;;5.30;97.90;;;;;;4933190;29;20538;-63
2021/12/04 07:42:33;;;;;;;10.75;7.72;;;5.20;97.90;;;;;;4928535;29;20032;-64
2021/12/04 07:44:59;;;;;;;11.00;7.13;;;5.20;97.90;;;;;;4945813;29;20035;-64
2021/12/04 07:47:26;;;;;;;9.48;6.88;;;5.20;97.90;;;;;;4928023;29;20056;-65
2021/12/04 07:49:52;;;;;;;12.35;7.13;;;5.20;97.90;;;;;;4932169;29;20078;-64
2021/12/04 07:52:17;;;;;;;10.45;6.60;;;5.30;97.90;;;;;;4933490;29;20086;-63
2021/12/04 07:54:43;;;;;;;17.80;6.90;;;5.20;97.90;;;;;;4938790;29;20036;-63
2021/12/04 07:57:09;;;;;;;9.00;6.00;;;5.30;97.90;;;;;;4932851;29;20027;-63
2021/12/04 07:59:34;;;;;;;11.20;6.82;;;5.20;97.90;;;;;;4933294;29;20031;-64
2021/12/04 08:02:00;;;;;;;9.93;6.88;;;5.30;97.90;;;;;;4932239;29;20063;-64
2021/12/04 08:04:26;;;;;;;10.20;6.45;;;5.40;97.90;;;;;;4932614;29;20032;-63
2021/12/04 08:06:53;;;;;;;12.55;6.35;;;5.40;97.80;;;;;;4927065;29;20055;-63
2021/12/04 08:09:19;;;;;;;10.43;7.15;;;5.30;97.70;;;;;;4927759;29;20027;-64
2021/12/04 08:11:46;;;;;;;8.93;5.95;;;5.30;97.70;;;;;;4927552;29;20043;-63
2021/12/04 08:14:12;;;;;;;9.45;5.65;;;5.40;97.70;;;;;;4929263;29;20066;-64
2021/12/04 08:16:38;;;;;;;9.88;6.13;;;5.40;97.70;;;;;;4927920;29;20063;-64
2021/12/04 08:19:03;;;;;;;9.68;5.60;;;5.40;97.90;;;;;;4930728;29;20126;-64
2021/12/04 08:21:29;;;;;;;10.45;7.07;;;5.40;97.70;;;;;;4932009;29;20059;-64
2021/12/04 08:23:54;;;;;;;11.20;6.38;;;5.40;97.70;;;;;;4935763;29;20023;-63
2021/12/04 08:26:21;;;;;;;11.25;6.53;;;5.40;97.70;;;;;;4931787;29;20443;-64
2021/12/04 08:28:47;;;;;;;10.60;6.22;;;5.40;97.70;;;;;;4933250;29;20083;-63
2021/12/04 08:31:13;;;;;;;11.48;6.30;;;5.50;97.70;;;;;;4932192;29;20030;-63
2021/12/04 08:33:38;;;;;;;10.40;6.15;;;5.50;97.70;;;;;;4941851;29;20031;-63
2021/12/04 08:36:04;;;;;;;11.50;5.13;;;5.50;97.60;;;;;;4930171;29;20047;-63
2021/12/04 08:38:32;;;;;;;9.15;5.32;;;5.50;97.50;;;;;;4935481;29;20037;-63
2021/12/04 08:40:59;;;;;;;9.32;6.20;;;5.50;97.50;;;;;;4932496;29;20032;-66
2021/12/04 08:43:25;;;;;;;11.95;6.38;;;5.60;97.50;;;;;;4933181;29;20032;-63
2021/12/04 08:45:50;;;;;;;9.52;6.40;;;5.60;97.50;;;;;;4931993;29;20042;-61
2021/12/04 08:48:16;;;;;;;12.20;6.72;;;5.60;97.50;;;;;;4932592;29;20047;-64
2021/12/04 08:50:42;;;;;;;10.65;6.53;;;5.60;97.50;;;;;;4941856;28;20047;-64
2021/12/04 08:53:09;;;;;;;8.98;6.57;;;5.60;97.50;;;;;;4927611;29;20094;-63
2021/12/04 08:55:38;;;;;;;8.70;5.70;;;5.60;97.50;;;;;;4927437;29;20488;-63
2021/12/04 08:58:06;;;;;;;10.63;6.28;;;5.70;97.50;;;;;;4932268;29;20111;-63
2021/12/04 09:00:48;;;;;;;10.32;6.90;;;5.70;97.50;;;;;;4931773;28;20050;-63
2021/12/04 09:03:35;;;;;;;10.18;6.80;;;5.80;97.50;;;;;;4935031;28;20031;-63
2021/12/04 09:06:03;;;;;;;9.80;6.50;;;5.80;97.50;;;;;;4922379;29;20161;-63
2021/12/04 09:08:30;;;;;;;9.00;5.80;;;5.80;97.40;;;;;;4926902;29;20651;-63
2021/12/04 09:11:00;;;;;;;12.95;7.18;;;5.80;97.40;;;;;;4941183;29;20032;-63
2021/12/04 09:13:28;;;;;;;9.88;6.22;;;5.80;97.30;;;;;;4932987;29;20062;-63
2021/12/04 09:15:56;;;;;;;13.43;7.15;;;5.90;97.30;;;;;;4925000;29;20040;-63
2021/12/04 09:18:22;;;;;;;10.20;6.50;;;5.90;97.30;;;;;;4932538;29;20082;-63
2021/12/04 09:20:50;;;;;;;11.52;6.93;;;5.80;97.20;;;;;;4927598;29;20032;-63
2021/12/04 09:23:18;;;;;;;10.30;7.35;;;5.80;97.20;;;;;;4928051;29;20484;-63
2021/12/04 09:25:49;;;;;;;12.68;7.45;;;5.80;97.20;;;;;;4931792;29;20046;-63
2021/12/04 09:36:37;;;;;;;11.88;8.15;;;5.80;97.20;;;;;;4933028;29;20070;-63
2021/12/04 10:01:42;;;;;;;10.30;6.97;;;5.70;97.40;;;;;;4938343;29;20425;-65
2021/12/04 10:04:40;;;;;;;10.65;7.53;;;5.70;97.40;;;;;;4936670;29;20031;-64
2021/12/04 10:13:15;;;;;;;11.15;8.20;;;5.60;97.40;;;;;;4936947;29;20032;-64
2021/12/04 10:16:11;;;;;;;10.20;7.32;;;5.70;97.40;;;;;;4930735;29;20393;-65
2021/12/04 10:35:04;;;;;;;12.63;7.85;;;5.60;97.30;;;;;;4934490;29;20086;-63
2021/12/04 10:37:31;;;;;;;11.63;7.97;;;5.60;97.40;;;;;;4929308;29;20040;-63
2021/12/04 10:40:08;;;;;;;9.77;7.18;;;5.70;97.40;;;;;;4932241;29;20354;-63
2021/12/04 10:42:49;;;;;;;11.45;7.55;;;5.60;97.40;;;;;;4930557;29;20581;-63
2021/12/04 10:45:15;;;;;;;10.65;7.18;;;5.60;97.40;;;;;;4931736;29;20119;-63
2021/12/04 10:47:56;;;;;;;11.13;7.75;;;5.70;97.40;;;;;;4928830;29;20127;-63
2021/12/04 10:53:03;;;;;;;9.15;6.82;;;5.70;97.30;;;;;;4929539;29;20468;-64
2021/12/04 11:04:12;;;;;;;12.63;8.10;;;5.70;97.30;;;;;;4930314;29;20066;-64
2021/12/04 11:07:02;;;;;;;10.80;7.32;;;5.70;97.30;;;;;;4927863;29;20480;-63
2021/12/04 11:39:10;;;;;;;12.93;8.43;;;5.90;97.30;;;;;;4930805;29;20043;-65
2021/12/04 11:44:30;;;;;;;12.52;8.43;;;6.00;97.30;;;;;;4934634;29;20040;-66
2021/12/04 11:46:56;;;;;;;13.50;8.90;;;6.00;97.30;;;;;;4935220;29;20056;-64
2021/12/04 11:49:25;;;;;;;12.35;8.85;;;6.00;97.30;;;;;;4935185;29;20571;-65
2021/12/04 11:52:01;;;;;;;13.65;9.30;;;6.00;97.20;;;;;;4933858;29;20036;-66
2021/12/04 11:54:32;;;;;;;14.13;9.25;;;6.00;97.20;;;;;;4934327;29;20526;-66
2021/12/04 11:57:05;;;;;;;11.60;8.32;;;6.00;97.40;;;;;;4925348;29;20024;-66
2021/12/04 11:59:34;;;;;;;13.25;9.50;;;6.10;97.20;;;;;;4932134;29;20036;-66
2021/12/04 12:02:03;;;;;;;13.65;9.48;;;6.10;97.20;;;;;;4934142;29;20031;-66
2021/12/04 12:04:37;;;;;;;14.88;9.82;;;6.10;97.10;;;;;;4942514;28;20052;-66
2021/12/04 12:07:10;;;;;;;;;;;6.10;97.10;;;;;;4927561;29;20039;-66
2021/12/04 12:09:37;;;;;;;14.75;9.40;;;6.20;97.10;;;;;;4932930;29;19945;-66
2021/12/04 12:12:05;;;;;;;14.27;9.68;;;6.20;97.10;;;;;;4928078;29;20036;-66
2021/12/04 12:14:44;;;;;;;13.65;9.43;;;6.10;97.10;;;;;;4932628;29;20038;-66
2021/12/04 12:17:10;;;;;;;14.18;9.20;;;6.10;97.00;;;;;;4927305;29;20110;-65
2021/12/04 12:19:41;;;;;;;12.15;8.68;;;6.20;97.00;;;;;;4927605;29;20023;-65
2021/12/04 12:22:31;;;;;;;15.48;9.52;;;6.20;97.00;;;;;;4945609;29;20040;-65
2021/12/04 12:25:17;;;;;;;14.10;9.15;;;6.20;97.00;;;;;;4934305;29;20031;-65
2021/12/04 12:31:41;;;;;;;12.55;8.88;;;6.20;96.90;;;;;;4932399;29;20447;-66
2021/12/04 12:33:55;;;;;;;12.65;8.90;;;6.20;96.90;;;;;;4934707;29;20032;-66
2021/12/04 12:36:24;;;;;;;12.27;7.88;;;6.20;96.80;;;;;;4939285;29;20024;-66
2021/12/04 12:38:57;;;;;;;11.57;8.55;;;6.20;96.80;;;;;;4936650;29;20151;-65
2021/12/04 12:41:43;;;;;;;13.15;8.88;;;6.20;96.80;;;;;;4932934;29;20071;-65
2021/12/04 12:44:18;;;;;;;11.27;7.57;;;6.20;96.80;;;;;;4948026;29;20032;-65
2021/12/04 12:47:02;;;;;;;12.60;8.13;;;6.20;96.80;;;;;;4934248;29;20087;-65
2021/12/04 12:49:42;;;;;;;12.15;8.32;;;6.30;96.70;;;;;;4914307;29;20088;-62
2021/12/04 12:52:14;;;;;;;12.15;8.25;;;6.20;96.70;;;;;;4915185;29;20443;-66
2021/12/04 12:54:55;;;;;;;13.45;7.78;;;6.30;96.70;;;;;;4929956;29;20115;-65
2021/12/04 12:57:26;;;;;;;11.82;8.35;;;6.30;96.70;;;;;;4932752;29;20039;-66
2021/12/04 13:14:10;;;;;;;10.27;7.13;;;6.30;96.60;;;;;;4933811;29;20070;-66
2021/12/04 13:16:35;;;;;;;10.55;7.75;;;6.20;96.50;;;;;;4935142;29;20031;-66
2021/12/04 13:19:07;;;;;;;10.85;7.47;;;6.20;96.50;;;;;;4936679;29;20031;-65
2021/12/04 13:21:34;;;;;;;9.70;6.72;;;6.20;96.50;;;;;;4936521;29;20111;-65
2021/12/04 13:24:00;;;;;;;9.30;6.57;;;6.20;96.50;;;;;;4937853;29;20483;-66
2021/12/04 13:26:28;;;;;;;10.18;6.63;;;6.20;96.50;;;;;;4935520;29;20034;-65
2021/12/04 13:28:54;;;;;;;9.25;6.60;;;6.20;96.40;;;;;;4936229;29;20032;-66
2021/12/04 13:31:20;;;;;;;10.65;7.15;;;6.20;96.40;;;;;;4929419;29;20090;-66
2021/12/04 13:33:51;;;;;;;10.43;7.07;;;6.20;96.40;;;;;;4933938;29;20114;-66
2021/12/04 13:36:26;;;;;;;11.10;7.60;;;6.20;96.40;;;;;;4934283;29;20024;-66
2021/12/04 13:39:12;;;;;;;13.75;8.55;;;6.30;96.40;;;;;;4933290;29;20039;-66
2021/12/04 13:41:41;;;;;;;13.13;8.70;;;6.30;96.30;;;;;;4942327;28;20036;-66
2021/12/04 13:44:08;;;;;;;14.38;9.55;;;6.30;96.40;;;;;;4935314;29;20031;-66
2021/12/04 13:46:41;;;;;;;17.00;10.57;;;6.20;96.40;;;;;;4935090;29;20099;-66
2021/12/04 13:49:08;;;;;;;13.02;9.60;;;6.30;96.50;;;;;;4934459;29;20024;-66
2021/12/04 13:51:34;;;;;;;15.77;10.18;;;6.20;96.50;;;;;;4928576;29;20130;-66
2021/12/04 13:54:01;;;;;;;14.82;10.30;;;6.30;96.70;;;;;;4928368;29;20037;-66
2021/12/04 13:56:27;;;;;;;15.30;10.82;;;6.20;96.50;;;;;;4928384;29;20052;-65
2021/12/04 13:59:00;;;;;;;19.20;12.18;;;6.20;96.50;;;;;;4931299;29;20032;-66
2021/12/04 14:01:28;;;;;;;19.55;12.02;;;6.20;96.50;;;;;;4930805;29;20098;-66
2021/12/04 14:03:56;;;;;;;17.42;11.77;;;6.20;96.50;;;;;;4933408;29;20051;-66
2021/12/04 14:06:25;;;;;;;17.42;10.88;;;6.20;96.50;;;;;;4931154;29;20039;-66
2021/12/04 14:09:03;;;;;;;16.85;11.52;;;6.10;96.50;;;;;;4929235;29;20039;-66
2021/12/04 14:11:35;;;;;;;20.15;12.23;;;6.10;96.60;;;;;;4928220;29;20047;-67
2021/12/04 14:14:20;;;;;;;18.42;11.98;;;6.10;96.60;;;;;;4928341;29;20036;-67
2021/12/04 14:16:50;;;;;;;18.08;11.90;;;6.10;96.70;;;;;;4928185;29;20031;-67
2021/12/04 14:19:19;;;;;;;18.98;12.60;;;6.10;96.60;;;;;;4934212;29;20035;-66
2021/12/04 14:21:59;;;;;;;18.75;11.68;;;6.10;96.60;;;;;;4926784;29;20040;-67
2021/12/04 14:24:30;;;;;;;18.73;12.18;;;6.00;96.60;;;;;;4932223;29;20440;-67
2021/12/04 14:26:57;;;;;;;19.70;12.65;;;6.10;96.60;;;;;;4934569;29;20036;-67
2021/12/04 14:29:31;;;;;;;19.70;12.60;;;6.00;96.60;;;;;;4929208;29;20040;-67
2021/12/04 14:31:58;;;;;;;19.05;12.50;;;6.10;96.70;;;;;;4929528;29;20451;-67
2021/12/04 14:34:26;;;;;;;19.35;12.90;;;6.00;96.60;;;;;;4927190;29;20020;-67
2021/12/04 14:37:15;;;;;;;20.98;13.73;;;6.00;96.70;;;;;;4933815;29;20037;-66
2021/12/04 14:39:44;;;;;;;18.55;12.63;;;6.00;96.90;;;;;;4938454;29;20059;-66
2021/12/04 14:42:26;;;;;;;21.13;13.38;;;6.00;96.70;;;;;;4934152;29;20034;-66
2021/12/04 14:44:58;;;;;;;21.60;14.52;;;6.00;96.70;;;;;;4926882;29;20038;-66
2021/12/04 14:47:30;;;;;;;21.58;13.75;;;6.00;96.70;;;;;;4934035;29;20046;-66
2021/12/04 14:50:00;;;;;;;21.00;13.60;;;5.90;96.70;;;;;;4933687;29;20026;-66
2021/12/04 14:52:29;;;;;;;21.48;13.43;;;5.90;96.80;;;;;;4932711;29;20043;-66
2021/12/04 14:54:56;;;;;;;19.42;13.15;;;5.90;96.80;;;;;;4928186;29;20031;-66
2021/12/04 14:57:25;;;;;;;21.02;15.02;;;5.80;96.80;;;;;;4934131;29;20674;-66
2021/12/04 15:00:10;;;;;;;20.58;14.32;;;5.80;96.80;;;;;;4928515;29;20551;-66
2021/12/04 15:02:36;;;;;;;20.83;13.68;;;5.90;96.90;;;;;;4933398;29;20039;-66
2021/12/04 15:05:04;;;;;;;22.08;14.05;;;5.90;96.80;;;;;;4938519;29;20035;-66
2021/12/04 15:07:33;;;;;;;21.20;13.98;;;5.80;96.80;;;;;;4929687;29;20411;-66
2021/12/04 15:10:02;;;;;;;19.20;13.05;;;5.80;96.80;;;;;;4933687;29;20486;-67
2021/12/04 15:12:33;;;;;;;21.33;13.27;;;5.80;96.90;;;;;;4933424;29;20055;-66
2021/12/04 15:15:07;;;;;;;18.52;12.32;;;5.70;96.90;;;;;;4934227;29;20019;-66
2021/12/04 15:17:34;;;;;;;18.67;13.63;;;5.70;96.90;;;;;;4932460;29;20095;-66
2021/12/04 15:20:11;;;;;;;19.65;12.90;;;5.70;97.00;;;;;;4934023;29;20054;-64
2021/12/04 15:22:44;;;;;;;20.67;13.50;;;5.70;97.00;;;;;;4934304;29;20094;-64
2021/12/04 15:25:16;;;;;;;20.40;13.00;;;5.70;97.00;;;;;;4916623;29;20020;-65
2021/12/04 15:27:43;;;;;;;19.70;13.38;;;5.70;97.00;;;;;;4932222;29;20027;-66
2021/12/04 15:30:14;;;;;;;18.55;12.80;;;5.60;97.00;;;;;;4930848;29;20036;-65
2021/12/04 15:32:40;;;;;;;21.48;12.95;;;5.60;97.10;;;;;;4930865;29;20067;-67
2021/12/04 15:35:30;;;;;;;19.27;12.68;;;5.60;97.10;;;;;;4933825;29;20444;-66
2021/12/04 15:38:05;;;;;;;17.42;11.25;;;5.60;97.20;;;;;;4933444;29;20084;-66
2021/12/04 15:43:37;;;;;;;17.27;11.70;;;5.60;97.20;;;;;;4929129;29;20035;-67
2021/12/04 15:46:31;;;;;;;19.98;12.80;;;5.60;97.10;;;;;;4940260;29;20039;-67
2021/12/04 15:52:47;;;;;;;17.77;11.82;;;5.60;97.20;;;;;;4932824;28;20048;-66
2021/12/04 15:54:39;;;;;;;16.35;11.45;;;5.60;97.20;;;;;;4934832;29;20376;-66
2021/12/04 15:57:14;;;;;;;19.17;12.20;;;5.70;97.40;;;;;;4932956;29;20076;-66
2021/12/04 15:59:45;;;;;;;20.48;12.27;;;5.70;97.20;;;;;;4933687;29;20391;-67
2021/12/04 16:02:15;;;;;;;20.05;12.63;;;5.70;97.20;;;;;;4934239;29;20032;-65
2021/12/04 16:04:44;;;;;;;17.75;11.57;;;5.60;97.20;;;;;;4934897;29;20435;-66
2021/12/04 16:07:20;;;;;;;15.55;10.40;;;5.60;97.10;;;;;;4926726;29;20059;-66